sensor_id;sensor_type;location;lat;lon;timestamp;pressure;altitude;pressure_sealevel;temperature;humidity
13661;BME280;6903;49.480;11.102;2023-04-26T00:00:16;97825.31;;;4.23;100.00
13661;BME280;6903;49.480;11.102;2023-04-26T00:02:41;97825.66;;;4.17;100.00
13661;BME280;6903;49.480;11.102;2023-04-26T00:05:07;97825.31;;;4.08;100.00
13661;BME280;6903;49.480;11.102;2023-04-26T00:07:33;97823.91;;;4.02;100.00
13661;BME280;6903;49.480;11.102;2023-04-26T00:09:59;97824.91;;;4.00;100.00
13661;BME280;6903;49.480;11.102;2023-04-26T00:12:25;97833.00;;;3.95;100.00
13661;BME280;6903;49.480;11.102;2023-04-26T00:14:50;97829.78;;;3.90;100.00
13661;BME280;6903;49.480;11.102;2023-04-26T00:17:15;97825.81;;;3.83;100.00
13661;BME280;6903;49.480;11.102;2023-04-26T00:19:41;97826.00;;;3.80;100.00
13661;BME280;6903;49.480;11.102;2023-04-26T00:22:06;97827.03;;;3.78;100.00
13661;BME280;6903;49.480;11.102;2023-04-26T00:24:33;97827.28;;;3.73;100.00
13661;BME280;6903;49.480;11.102;2023-04-26T00:26:58;97831.81;;;3.70;100.00
13661;BME280;6903;49.480;11.102;2023-04-26T00:29:24;97833.47;;;3.71;100.00
13661;BME280;6903;49.480;11.102;2023-04-26T00:31:50;97830.97;;;3.69;100.00
13661;BME280;6903;49.480;11.102;2023-04-26T00:34:15;97834.50;;;3.68;100.00
13661;BME280;6903;49.480;11.102;2023-04-26T00:36:40;97832.88;;;3.66;100.00
13661;BME280;6903;49.480;11.102;2023-04-26T00:39:06;97832.06;;;3.65;100.00
13661;BME280;6903;49.480;11.102;2023-04-26T00:41:32;97836.50;;;3.63;100.00
13661;BME280;6903;49.480;11.102;2023-04-26T00:43:58;97836.84;;;3.57;100.00
13661;BME280;6903;49.480;11.102;2023-04-26T00:46:23;97832.69;;;3.53;100.00
13661;BME280;6903;49.480;11.102;2023-04-26T00:48:49;97831.19;;;3.49;100.00
13661;BME280;6903;49.480;11.102;2023-04-26T00:51:15;97841.03;;;3.44;100.00
13661;BME280;6903;49.480;11.102;2023-04-26T00:53:41;97832.69;;;3.38;100.00
13661;BME280;6903;49.480;11.102;2023-04-26T00:56:08;97850.41;;;3.31;100.00
13661;BME280;6903;49.480;11.102;2023-04-26T00:58:33;97843.00;;;3.24;100.00
13661;BME280;6903;49.480;11.102;2023-04-26T01:00:59;97846.91;;;3.15;100.00
13661;BME280;6903;49.480;11.102;2023-04-26T01:03:24;97842.94;;;3.08;100.00
13661;BME280;6903;49.480;11.102;2023-04-26T01:05:51;97846.78;;;3.01;100.00
13661;BME280;6903;49.480;11.102;2023-04-26T01:08:16;97841.78;;;2.97;100.00
13661;BME280;6903;49.480;11.102;2023-04-26T01:10:46;97850.78;;;2.91;100.00
13661;BME280;6903;49.480;11.102;2023-04-26T01:13:11;97854.50;;;2.85;100.00
13661;BME280;6903;49.480;11.102;2023-04-26T01:15:37;97864.16;;;2.83;100.00
13661;BME280;6903;49.480;11.102;2023-04-26T01:18:03;97859.97;;;2.81;100.00
13661;BME280;6903;49.480;11.102;2023-04-26T01:20:29;97862.81;;;2.76;100.00
13661;BME280;6903;49.480;11.102;2023-04-26T01:22:54;97852.53;;;2.73;100.00
13661;BME280;6903;49.480;11.102;2023-04-26T01:25:20;97855.44;;;2.67;100.00
13661;BME280;6903;49.480;11.102;2023-04-26T01:27:45;97859.34;;;2.59;100.00
13661;BME280;6903;49.480;11.102;2023-04-26T01:30:11;97864.91;;;2.51;100.00
13661;BME280;6903;49.480;11.102;2023-04-26T01:32:36;97871.34;;;2.44;100.00
13661;BME280;6903;49.480;11.102;2023-04-26T01:35:02;97862.13;;;2.37;100.00
13661;BME280;6903;49.480;11.102;2023-04-26T01:37:27;97868.44;;;2.33;100.00
13661;BME280;6903;49.480;11.102;2023-04-26T01:39:52;97864.19;;;2.31;100.00
13661;BME280;6903;49.480;11.102;2023-04-26T01:42:18;97864.19;;;2.31;100.00
13661;BME280;6903;49.480;11.102;2023-04-26T01:44:43;97867.72;;;2.30;100.00
13661;BME280;6903;49.480;11.102;2023-04-26T01:47:08;97861.97;;;2.23;100.00
13661;BME280;6903;49.480;11.102;2023-04-26T01:49:34;97865.69;;;2.18;100.00
13661;BME280;6903;49.480;11.102;2023-04-26T01:52:00;97861.56;;;2.14;100.00
13661;BME280;6903;49.480;11.102;2023-04-26T01:54:25;97867.81;;;2.10;100.00
13661;BME280;6903;49.480;11.102;2023-04-26T01:56:51;97870.56;;;2.07;100.00
13661;BME280;6903;49.480;11.102;2023-04-26T01:59:16;97861.09;;;2.06;100.00
13661;BME280;6903;49.480;11.102;2023-04-26T02:01:41;97869.03;;;2.03;100.00
13661;BME280;6903;49.480;11.102;2023-04-26T02:04:10;97867.47;;;1.99;100.00
13661;BME280;6903;49.480;11.102;2023-04-26T02:06:35;97871.91;;;1.97;100.00
13661;BME280;6903;49.480;11.102;2023-04-26T02:09:05;97866.84;;;1.94;100.00
13661;BME280;6903;49.480;11.102;2023-04-26T02:11:30;97866.06;;;1.92;100.00
13661;BME280;6903;49.480;11.102;2023-04-26T02:13:55;97869.75;;;1.88;100.00
13661;BME280;6903;49.480;11.102;2023-04-26T02:16:21;97873.59;;;1.79;100.00
13661;BME280;6903;49.480;11.102;2023-04-26T02:18:47;97872.28;;;1.71;100.00
13661;BME280;6903;49.480;11.102;2023-04-26T02:21:15;97874.47;;;1.61;100.00
13661;BME280;6903;49.480;11.102;2023-04-26T02:23:41;97876.41;;;1.56;100.00
13661;BME280;6903;49.480;11.102;2023-04-26T02:26:06;97873.94;;;1.53;100.00
13661;BME280;6903;49.480;11.102;2023-04-26T02:28:31;97866.41;;;1.47;100.00
13661;BME280;6903;49.480;11.102;2023-04-26T02:30:57;97869.22;;;1.42;100.00
13661;BME280;6903;49.480;11.102;2023-04-26T02:33:22;97866.91;;;1.36;100.00
13661;BME280;6903;49.480;11.102;2023-04-26T02:35:47;97867.19;;;1.30;100.00
13661;BME280;6903;49.480;11.102;2023-04-26T02:38:13;97862.25;;;1.24;100.00
13661;BME280;6903;49.480;11.102;2023-04-26T02:40:38;97868.44;;;1.22;100.00
13661;BME280;6903;49.480;11.102;2023-04-26T02:43:03;97870.31;;;1.18;100.00
13661;BME280;6903;49.480;11.102;2023-04-26T02:45:29;97866.94;;;1.16;100.00
13661;BME280;6903;49.480;11.102;2023-04-26T02:47:54;97873.19;;;1.12;100.00
13661;BME280;6903;49.480;11.102;2023-04-26T02:50:19;97869.81;;;1.10;100.00
13661;BME280;6903;49.480;11.102;2023-04-26T02:52:45;97880.31;;;1.07;100.00
13661;BME280;6903;49.480;11.102;2023-04-26T02:55:10;97875.25;;;1.04;100.00
13661;BME280;6903;49.480;11.102;2023-04-26T02:57:35;97880.53;;;1.03;100.00
13661;BME280;6903;49.480;11.102;2023-04-26T03:00:01;97872.88;;;1.00;100.00
13661;BME280;6903;49.480;11.102;2023-04-26T03:02:26;97869.56;;;0.96;100.00
13661;BME280;6903;49.480;11.102;2023-04-26T03:04:51;97873.75;;;0.99;100.00
13661;BME280;6903;49.480;11.102;2023-04-26T03:07:17;97877.28;;;0.98;100.00
13661;BME280;6903;49.480;11.102;2023-04-26T03:09:42;97869.63;;;0.95;100.00
13661;BME280;6903;49.480;11.102;2023-04-26T03:12:07;97874.97;;;0.90;100.00
13661;BME280;6903;49.480;11.102;2023-04-26T03:14:33;97883.81;;;0.86;100.00
13661;BME280;6903;49.480;11.102;2023-04-26T03:16:59;97880.56;;;0.81;100.00
13661;BME280;6903;49.480;11.102;2023-04-26T03:19:25;97882.50;;;0.76;100.00
13661;BME280;6903;49.480;11.102;2023-04-26T03:21:52;97882.50;;;0.76;100.00
13661;BME280;6903;49.480;11.102;2023-04-26T03:24:17;97885.25;;;0.73;100.00
13661;BME280;6903;49.480;11.102;2023-04-26T03:26:42;97891.50;;;0.69;100.00
13661;BME280;6903;49.480;11.102;2023-04-26T03:29:08;97888.16;;;0.66;100.00
13661;BME280;6903;49.480;11.102;2023-04-26T03:31:33;97888.28;;;0.63;100.00
13661;BME280;6903;49.480;11.102;2023-04-26T03:33:59;97886.72;;;0.59;100.00
13661;BME280;6903;49.480;11.102;2023-04-26T03:36:24;97891.19;;;0.55;100.00
13661;BME280;6903;49.480;11.102;2023-04-26T03:38:49;97888.66;;;0.54;100.00
13661;BME280;6903;49.480;11.102;2023-04-26T03:41:16;97891.38;;;0.51;100.00
13661;BME280;6903;49.480;11.102;2023-04-26T03:43:41;97895.84;;;0.47;100.00
13661;BME280;6903;49.480;11.102;2023-04-26T03:46:07;97896.03;;;0.43;100.00
13661;BME280;6903;49.480;11.102;2023-04-26T03:48:32;97893.63;;;0.38;100.00
13661;BME280;6903;49.480;11.102;2023-04-26T03:50:57;97892.13;;;0.33;100.00
13661;BME280;6903;49.480;11.102;2023-04-26T03:53:23;97898.34;;;0.29;100.00
13661;BME280;6903;49.480;11.102;2023-04-26T03:55:48;97898.41;;;0.27;100.00
13661;BME280;6903;49.480;11.102;2023-04-26T03:58:13;97902.59;;;0.30;100.00
13661;BME280;6903;49.480;11.102;2023-04-26T04:00:39;97896.41;;;0.34;100.00
13661;BME280;6903;49.480;11.102;2023-04-26T04:03:06;97905.69;;;0.39;100.00
13661;BME280;6903;49.480;11.102;2023-04-26T04:05:32;97907.19;;;0.45;100.00
13661;BME280;6903;49.480;11.102;2023-04-26T04:07:58;97905.44;;;0.45;100.00
13661;BME280;6903;49.480;11.102;2023-04-26T04:10:23;97909.00;;;0.43;100.00
13661;BME280;6903;49.480;11.102;2023-04-26T04:12:49;97906.41;;;0.43;100.00
13661;BME280;6903;49.480;11.102;2023-04-26T04:15:15;97910.66;;;0.44;100.00
13661;BME280;6903;49.480;11.102;2023-04-26T04:17:41;97908.94;;;0.44;100.00
13661;BME280;6903;49.480;11.102;2023-04-26T04:20:07;97911.47;;;0.46;100.00
13661;BME280;6903;49.480;11.102;2023-04-26T04:22:32;97906.09;;;0.50;100.00
13661;BME280;6903;49.480;11.102;2023-04-26T04:24:58;97906.75;;;0.55;100.00
13661;BME280;6903;49.480;11.102;2023-04-26T04:27:27;97912.66;;;0.59;100.00
13661;BME280;6903;49.480;11.102;2023-04-26T04:29:52;97915.91;;;0.64;100.00
13661;BME280;6903;49.480;11.102;2023-04-26T04:32:19;97911.31;;;0.70;100.00
13661;BME280;6903;49.480;11.102;2023-04-26T04:34:45;97919.44;;;0.83;100.00
13661;BME280;6903;49.480;11.102;2023-04-26T04:37:10;97925.47;;;1.03;100.00
13661;BME280;6903;49.480;11.102;2023-04-26T04:39:36;97933.66;;;1.34;100.00
13661;BME280;6903;49.480;11.102;2023-04-26T04:42:01;97938.34;;;1.65;100.00
13661;BME280;6903;49.480;11.102;2023-04-26T04:44:27;97931.69;;;1.97;100.00
13661;BME280;6903;49.480;11.102;2023-04-26T04:46:52;97938.25;;;2.24;100.00
13661;BME280;6903;49.480;11.102;2023-04-26T04:49:17;97943.81;;;2.52;100.00
13661;BME280;6903;49.480;11.102;2023-04-26T04:51:43;97942.56;;;2.77;100.00
13661;BME280;6903;49.480;11.102;2023-04-26T04:54:13;97950.81;;;3.04;100.00
13661;BME280;6903;49.480;11.102;2023-04-26T04:56:38;97945.97;;;3.31;100.00
13661;BME280;6903;49.480;11.102;2023-04-26T04:59:04;97957.50;;;3.59;100.00
13661;BME280;6903;49.480;11.102;2023-04-26T05:01:33;97955.91;;;3.89;100.00
13661;BME280;6903;49.480;11.102;2023-04-26T05:03:58;97949.31;;;4.15;100.00
13661;BME280;6903;49.480;11.102;2023-04-26T05:06:25;97958.31;;;4.41;100.00
13661;BME280;6903;49.480;11.102;2023-04-26T05:08:51;97954.00;;;4.71;100.00
13661;BME280;6903;49.480;11.102;2023-04-26T05:11:16;97962.97;;;4.96;100.00
13661;BME280;6903;49.480;11.102;2023-04-26T05:13:42;97957.97;;;5.23;100.00
13661;BME280;6903;49.480;11.102;2023-04-26T05:16:07;97961.66;;;5.48;100.00
13661;BME280;6903;49.480;11.102;2023-04-26T05:18:32;97959.91;;;5.77;100.00
13661;BME280;6903;49.480;11.102;2023-04-26T05:20:58;97964.81;;;6.11;100.00
13661;BME280;6903;49.480;11.102;2023-04-26T05:23:23;97961.44;;;6.37;100.00
13661;BME280;6903;49.480;11.102;2023-04-26T05:25:48;97960.44;;;6.66;100.00
13661;BME280;6903;49.480;11.102;2023-04-26T05:28:15;97960.06;;;6.99;100.00
13661;BME280;6903;49.480;11.102;2023-04-26T05:30:40;97967.56;;;7.30;100.00
13661;BME280;6903;49.480;11.102;2023-04-26T05:33:06;97969.00;;;7.61;100.00
13661;BME280;6903;49.480;11.102;2023-04-26T05:35:32;97962.41;;;7.93;100.00
13661;BME280;6903;49.480;11.102;2023-04-26T05:37:57;97958.31;;;8.26;100.00
13661;BME280;6903;49.480;11.102;2023-04-26T05:40:22;97961.63;;;8.53;100.00
13661;BME280;6903;49.480;11.102;2023-04-26T05:42:49;97967.13;;;8.74;100.00
13661;BME280;6903;49.480;11.102;2023-04-26T05:45:15;97971.75;;;9.07;100.00
13661;BME280;6903;49.480;11.102;2023-04-26T05:47:40;97973.75;;;9.27;100.00
13661;BME280;6903;49.480;11.102;2023-04-26T05:50:06;97974.34;;;9.65;100.00
13661;BME280;6903;49.480;11.102;2023-04-26T05:52:32;97973.81;;;9.83;100.00
13661;BME280;6903;49.480;11.102;2023-04-26T05:54:57;97984.78;;;10.12;100.00
13661;BME280;6903;49.480;11.102;2023-04-26T05:57:22;97980.34;;;10.35;100.00
13661;BME280;6903;49.480;11.102;2023-04-26T05:59:48;97986.31;;;10.70;100.00
13661;BME280;6903;49.480;11.102;2023-04-26T06:02:13;97988.03;;;11.13;100.00
13661;BME280;6903;49.480;11.102;2023-04-26T06:04:38;97987.44;;;11.53;100.00
13661;BME280;6903;49.480;11.102;2023-04-26T06:07:04;97986.25;;;11.77;100.00
13661;BME280;6903;49.480;11.102;2023-04-26T06:09:32;97977.81;;;12.04;94.96
13661;BME280;6903;49.480;11.102;2023-04-26T06:11:57;97985.38;;;12.18;92.11
13661;BME280;6903;49.480;11.102;2023-04-26T06:14:22;97988.38;;;12.54;88.98
13661;BME280;6903;49.480;11.102;2023-04-26T06:16:48;97987.91;;;12.89;81.16
13661;BME280;6903;49.480;11.102;2023-04-26T06:19:13;97989.69;;;13.19;78.09
13661;BME280;6903;49.480;11.102;2023-04-26T06:21:38;97988.03;;;13.27;74.96
13661;BME280;6903;49.480;11.102;2023-04-26T06:24:04;97986.50;;;13.63;73.77
13661;BME280;6903;49.480;11.102;2023-04-26T06:26:30;97997.75;;;14.03;72.53
13661;BME280;6903;49.480;11.102;2023-04-26T06:28:56;97989.69;;;14.14;69.36
13661;BME280;6903;49.480;11.102;2023-04-26T06:31:21;97990.78;;;14.11;67.27
13661;BME280;6903;49.480;11.102;2023-04-26T06:33:47;97997.19;;;14.18;65.17
13661;BME280;6903;49.480;11.102;2023-04-26T06:36:12;97991.53;;;14.50;66.04
13661;BME280;6903;49.480;11.102;2023-04-26T06:38:38;97991.84;;;14.74;64.71
13661;BME280;6903;49.480;11.102;2023-04-26T06:41:03;97988.09;;;14.77;63.67
13661;BME280;6903;49.480;11.102;2023-04-26T06:43:28;97985.53;;;14.48;62.35
13661;BME280;6903;49.480;11.102;2023-04-26T06:45:53;97991.75;;;14.66;59.71
13661;BME280;6903;49.480;11.102;2023-04-26T06:48:19;97992.56;;;14.76;61.70
13661;BME280;6903;49.480;11.102;2023-04-26T06:50:44;97994.78;;;15.25;61.56
13661;BME280;6903;49.480;11.102;2023-04-26T06:53:10;97992.78;;;15.72;60.86
13661;BME280;6903;49.480;11.102;2023-04-26T06:55:35;97992.09;;;16.05;57.08
13661;BME280;6903;49.480;11.102;2023-04-26T06:58:01;97997.19;;;16.24;56.38
13661;BME280;6903;49.480;11.102;2023-04-26T07:00:26;97995.19;;;16.18;54.33
13661;BME280;6903;49.480;11.102;2023-04-26T07:02:52;97992.59;;;16.52;53.74
13661;BME280;6903;49.480;11.102;2023-04-26T07:05:17;97991.03;;;16.67;52.67
13661;BME280;6903;49.480;11.102;2023-04-26T07:07:43;97988.47;;;16.57;50.92
13661;BME280;6903;49.480;11.102;2023-04-26T07:10:08;97982.88;;;16.68;51.17
13661;BME280;6903;49.480;11.102;2023-04-26T07:12:34;97992.03;;;17.16;50.41
13661;BME280;6903;49.480;11.102;2023-04-26T07:14:59;97993.38;;;17.12;48.89
13661;BME280;6903;49.480;11.102;2023-04-26T07:17:25;97996.25;;;17.26;49.08
13661;BME280;6903;49.480;11.102;2023-04-26T07:19:50;97999.03;;;17.66;47.98
13661;BME280;6903;49.480;11.102;2023-04-26T07:22:16;97996.72;;;18.44;48.67
13661;BME280;6903;49.480;11.102;2023-04-26T07:24:41;97998.00;;;18.56;45.59
13661;BME280;6903;49.480;11.102;2023-04-26T07:27:06;97999.00;;;18.55;42.62
13661;BME280;6903;49.480;11.102;2023-04-26T07:29:32;97989.03;;;18.49;43.46
13661;BME280;6903;49.480;11.102;2023-04-26T07:31:57;97987.88;;;17.95;41.78
13661;BME280;6903;49.480;11.102;2023-04-26T07:34:23;97997.50;;;17.64;41.85
13661;BME280;6903;49.480;11.102;2023-04-26T07:36:48;97996.53;;;17.73;40.97
13661;BME280;6903;49.480;11.102;2023-04-26T07:39:13;97986.53;;;17.17;41.76
13661;BME280;6903;49.480;11.102;2023-04-26T07:41:39;97992.09;;;16.90;42.53
13661;BME280;6903;49.480;11.102;2023-04-26T07:44:05;97990.13;;;16.92;42.03
13661;BME280;6903;49.480;11.102;2023-04-26T07:46:32;97990.00;;;17.02;41.16
13661;BME280;6903;49.480;11.102;2023-04-26T07:48:58;97989.81;;;16.95;41.86
13661;BME280;6903;49.480;11.102;2023-04-26T07:51:23;97993.69;;;17.09;41.23
13661;BME280;6903;49.480;11.102;2023-04-26T07:53:48;97995.34;;;17.67;42.68
13661;BME280;6903;49.480;11.102;2023-04-26T07:56:13;97998.03;;;18.23;40.40
13661;BME280;6903;49.480;11.102;2023-04-26T07:58:39;97995.06;;;18.43;38.77
13661;BME280;6903;49.480;11.102;2023-04-26T08:01:05;97989.50;;;18.60;37.13
13661;BME280;6903;49.480;11.102;2023-04-26T08:03:30;97991.72;;;18.41;35.50
13661;BME280;6903;49.480;11.102;2023-04-26T08:05:56;97988.38;;;18.39;35.63
13661;BME280;6903;49.480;11.102;2023-04-26T08:08:24;97991.13;;;18.69;36.55
13661;BME280;6903;49.480;11.102;2023-04-26T08:10:49;98002.44;;;19.87;37.67
13661;BME280;6903;49.480;11.102;2023-04-26T08:13:15;98002.53;;;20.39;34.97
13661;BME280;6903;49.480;11.102;2023-04-26T08:15:40;97998.78;;;20.03;36.13
13661;BME280;6903;49.480;11.102;2023-04-26T08:18:06;98009.38;;;20.19;36.26
13661;BME280;6903;49.480;11.102;2023-04-26T08:20:31;98003.66;;;20.59;35.16
13661;BME280;6903;49.480;11.102;2023-04-26T08:22:57;98005.25;;;20.68;35.77
13661;BME280;6903;49.480;11.102;2023-04-26T08:25:23;97998.00;;;21.41;35.25
13661;BME280;6903;49.480;11.102;2023-04-26T08:27:49;98002.19;;;21.79;34.32
13661;BME280;6903;49.480;11.102;2023-04-26T08:30:14;98009.94;;;21.74;31.47
13661;BME280;6903;49.480;11.102;2023-04-26T08:32:40;98005.44;;;20.81;31.17
13661;BME280;6903;49.480;11.102;2023-04-26T08:35:05;98005.22;;;19.94;31.50
13661;BME280;6903;49.480;11.102;2023-04-26T08:37:31;98003.19;;;20.55;32.96
13661;BME280;6903;49.480;11.102;2023-04-26T08:39:56;97992.94;;;20.73;30.84
13661;BME280;6903;49.480;11.102;2023-04-26T08:42:26;97997.38;;;20.66;32.67
13661;BME280;6903;49.480;11.102;2023-04-26T08:44:52;97999.16;;;21.03;32.94
13661;BME280;6903;49.480;11.102;2023-04-26T08:47:28;97996.09;;;21.21;32.32
13661;BME280;6903;49.480;11.102;2023-04-26T08:49:57;97999.41;;;21.37;32.27
13661;BME280;6903;49.480;11.102;2023-04-26T08:52:27;97995.53;;;20.96;31.21
13661;BME280;6903;49.480;11.102;2023-04-26T08:54:52;98002.97;;;20.28;31.19
13661;BME280;6903;49.480;11.102;2023-04-26T08:57:19;98003.69;;;20.14;31.48
13661;BME280;6903;49.480;11.102;2023-04-26T08:59:45;97986.53;;;20.08;31.41
13661;BME280;6903;49.480;11.102;2023-04-26T09:02:21;97995.34;;;19.49;33.37
13661;BME280;6903;49.480;11.102;2023-04-26T09:04:48;97993.56;;;19.87;33.10
13661;BME280;6903;49.480;11.102;2023-04-26T09:07:29;97988.66;;;20.35;31.57
13661;BME280;6903;49.480;11.102;2023-04-26T09:09:57;97999.22;;;19.92;32.32
13661;BME280;6903;49.480;11.102;2023-04-26T09:12:23;97999.53;;;19.43;32.16
13661;BME280;6903;49.480;11.102;2023-04-26T09:14:48;97997.34;;;19.47;32.44
13661;BME280;6903;49.480;11.102;2023-04-26T09:17:27;97996.84;;;19.74;32.06
13661;BME280;6903;49.480;11.102;2023-04-26T09:19:53;97993.22;;;19.36;31.69
13661;BME280;6903;49.480;11.102;2023-04-26T09:22:35;97993.22;;;18.90;30.74
13661;BME280;6903;49.480;11.102;2023-04-26T09:25:02;97979.03;;;19.36;32.21
13661;BME280;6903;49.480;11.102;2023-04-26T09:27:38;97980.50;;;20.29;31.78
13661;BME280;6903;49.480;11.102;2023-04-26T09:30:10;97979.06;;;20.84;31.19
13661;BME280;6903;49.480;11.102;2023-04-26T09:38:40;97975.59;;;21.49;29.54
13661;BME280;6903;49.480;11.102;2023-04-26T09:43:08;97977.13;;;22.63;28.60
13661;BME280;6903;49.480;11.102;2023-04-26T09:45:59;97969.19;;;22.89;27.64
13661;BME280;6903;49.480;11.102;2023-04-26T09:48:30;97972.59;;;23.04;27.32
13661;BME280;6903;49.480;11.102;2023-04-26T09:56:18;97968.56;;;22.04;25.11
13661;BME280;6903;49.480;11.102;2023-04-26T10:01:16;97962.72;;;20.36;29.22
13661;BME280;6903;49.480;11.102;2023-04-26T10:03:43;97964.56;;;20.64;29.61
13661;BME280;6903;49.480;11.102;2023-04-26T10:06:08;97964.56;;;20.50;28.32
13661;BME280;6903;49.480;11.102;2023-04-26T10:08:34;97965.59;;;20.63;29.75
13661;BME280;6903;49.480;11.102;2023-04-26T10:11:02;97961.72;;;20.80;28.74
13661;BME280;6903;49.480;11.102;2023-04-26T10:13:30;97960.50;;;21.12;29.14
13661;BME280;6903;49.480;11.102;2023-04-26T10:15:56;97953.88;;;21.08;28.66
13661;BME280;6903;49.480;11.102;2023-04-26T10:18:22;97955.50;;;20.65;28.23
13661;BME280;6903;49.480;11.102;2023-04-26T10:20:51;97957.00;;;20.39;28.33
13661;BME280;6903;49.480;11.102;2023-04-26T10:23:19;97957.03;;;19.94;28.90
13661;BME280;6903;49.480;11.102;2023-04-26T10:25:45;97959.19;;;19.98;29.60
13661;BME280;6903;49.480;11.102;2023-04-26T10:28:11;97958.28;;;19.83;29.63
13661;BME280;6903;49.480;11.102;2023-04-26T10:31:06;97963.25;;;19.94;28.55
13661;BME280;6903;49.480;11.102;2023-04-26T10:33:31;97962.69;;;19.23;28.97
13661;BME280;6903;49.480;11.102;2023-04-26T10:36:02;97957.16;;;19.24;30.61
13661;BME280;6903;49.480;11.102;2023-04-26T10:38:28;97961.56;;;19.48;30.10
13661;BME280;6903;49.480;11.102;2023-04-26T10:40:53;97959.31;;;19.82;29.86
13661;BME280;6903;49.480;11.102;2023-04-26T10:45:45;97961.75;;;20.14;29.79
13661;BME280;6903;49.480;11.102;2023-04-26T10:53:33;97953.44;;;19.03;30.03
13661;BME280;6903;49.480;11.102;2023-04-26T10:59:14;97937.78;;;18.37;30.61
13661;BME280;6903;49.480;11.102;2023-04-26T11:01:43;97937.59;;;18.93;31.03
13661;BME280;6903;49.480;11.102;2023-04-26T11:04:10;97940.63;;;19.21;30.08
13661;BME280;6903;49.480;11.102;2023-04-26T11:06:51;97939.81;;;19.51;30.77
13661;BME280;6903;49.480;11.102;2023-04-26T11:09:36;97934.63;;;19.49;30.80
13661;BME280;6903;49.480;11.102;2023-04-26T11:12:04;97933.16;;;19.47;30.77
13661;BME280;6903;49.480;11.102;2023-04-26T11:14:30;97940.47;;;19.22;30.98
13661;BME280;6903;49.480;11.102;2023-04-26T11:16:55;97939.84;;;19.12;30.72
13661;BME280;6903;49.480;11.102;2023-04-26T11:19:21;97943.53;;;19.11;30.16
13661;BME280;6903;49.480;11.102;2023-04-26T11:21:47;97935.28;;;18.35;30.43
13661;BME280;6903;49.480;11.102;2023-04-26T11:24:14;97934.47;;;18.19;30.92
13661;BME280;6903;49.480;11.102;2023-04-26T11:26:39;97929.22;;;18.58;31.93
13661;BME280;6903;49.480;11.102;2023-04-26T11:29:06;97933.34;;;19.15;31.55
13661;BME280;6903;49.480;11.102;2023-04-26T11:31:33;97930.66;;;19.45;31.30
13661;BME280;6903;49.480;11.102;2023-04-26T11:34:04;97926.91;;;19.54;30.66
13661;BME280;6903;49.480;11.102;2023-04-26T11:36:29;97931.59;;;19.22;30.10
13661;BME280;6903;49.480;11.102;2023-04-26T11:38:56;97922.41;;;19.24;29.96
13661;BME280;6903;49.480;11.102;2023-04-26T11:41:22;97921.72;;;19.30;30.50
13661;BME280;6903;49.480;11.102;2023-04-26T11:43:47;97922.81;;;19.44;29.71
13661;BME280;6903;49.480;11.102;2023-04-26T11:46:12;97915.03;;;19.34;29.46
13661;BME280;6903;49.480;11.102;2023-04-26T11:48:38;97915.50;;;19.60;29.11
13661;BME280;6903;49.480;11.102;2023-04-26T11:51:04;97909.72;;;20.09;29.08
13661;BME280;6903;49.480;11.102;2023-04-26T11:53:38;97910.44;;;20.40;28.97
13661;BME280;6903;49.480;11.102;2023-04-26T11:56:24;97910.16;;;20.64;29.56
13661;BME280;6903;49.480;11.102;2023-04-26T11:58:51;97920.16;;;20.55;27.97
13661;BME280;6903;49.480;11.102;2023-04-26T12:03:49;97923.00;;;20.25;29.56
13661;BME280;6903;49.480;11.102;2023-04-26T12:06:14;97918.06;;;20.28;27.93
13661;BME280;6903;49.480;11.102;2023-04-26T12:08:39;97918.44;;;19.88;29.14
13661;BME280;6903;49.480;11.102;2023-04-26T12:11:06;97917.56;;;19.96;28.91
13661;BME280;6903;49.480;11.102;2023-04-26T12:13:32;97910.03;;;20.28;28.85
13661;BME280;6903;49.480;11.102;2023-04-26T12:15:57;97914.38;;;19.78;28.59
13661;BME280;6903;49.480;11.102;2023-04-26T12:18:29;97912.53;;;19.25;30.78
13661;BME280;6903;49.480;11.102;2023-04-26T12:20:57;97911.94;;;19.15;29.71
13661;BME280;6903;49.480;11.102;2023-04-26T12:23:23;97908.28;;;18.77;29.78
13661;BME280;6903;49.480;11.102;2023-04-26T12:25:53;97903.53;;;18.95;31.29
13661;BME280;6903;49.480;11.102;2023-04-26T12:28:20;97905.44;;;19.40;29.85
13661;BME280;6903;49.480;11.102;2023-04-26T12:30:46;97894.84;;;18.93;29.42
13661;BME280;6903;49.480;11.102;2023-04-26T12:33:11;97891.72;;;18.35;29.63
13661;BME280;6903;49.480;11.102;2023-04-26T12:35:37;97895.56;;;18.49;30.38
13661;BME280;6903;49.480;11.102;2023-04-26T12:38:02;97897.59;;;18.39;31.10
13661;BME280;6903;49.480;11.102;2023-04-26T12:40:28;97898.97;;;18.73;30.96
13661;BME280;6903;49.480;11.102;2023-04-26T12:42:54;97890.53;;;18.92;30.73
13661;BME280;6903;49.480;11.102;2023-04-26T12:45:20;97902.13;;;19.38;31.48
13661;BME280;6903;49.480;11.102;2023-04-26T12:47:46;97895.34;;;19.73;29.49
13661;BME280;6903;49.480;11.102;2023-04-26T12:50:12;97886.59;;;19.56;29.23
13661;BME280;6903;49.480;11.102;2023-04-26T12:52:42;97882.84;;;19.88;29.35
13661;BME280;6903;49.480;11.102;2023-04-26T12:55:10;97884.00;;;20.22;29.62
13661;BME280;6903;49.480;11.102;2023-04-26T12:57:36;97885.03;;;20.50;29.80
13661;BME280;6903;49.480;11.102;2023-04-26T13:00:04;97884.72;;;20.89;28.75
13661;BME280;6903;49.480;11.102;2023-04-26T13:02:30;97875.75;;;20.96;27.22
13661;BME280;6903;49.480;11.102;2023-04-26T13:04:56;97871.09;;;20.40;27.73
13661;BME280;6903;49.480;11.102;2023-04-26T13:07:21;97868.22;;;20.56;28.81
13661;BME280;6903;49.480;11.102;2023-04-26T13:09:47;97873.00;;;20.75;28.39
13661;BME280;6903;49.480;11.102;2023-04-26T13:12:13;97870.97;;;20.77;28.37
13661;BME280;6903;49.480;11.102;2023-04-26T13:14:39;97877.22;;;20.84;28.36
13661;BME280;6903;49.480;11.102;2023-04-26T13:17:05;97875.13;;;20.51;27.25
13661;BME280;6903;49.480;11.102;2023-04-26T13:19:32;97872.88;;;20.11;27.98
13661;BME280;6903;49.480;11.102;2023-04-26T13:21:58;97869.97;;;20.20;29.02
13661;BME280;6903;49.480;11.102;2023-04-26T13:24:23;97878.38;;;20.17;29.00